Terminal Aerodrome Forecast
Issued by NWS Knoxville/Tri Cities, TN

Home | Current Version | Previous Version | Text Only | Print | Product List | Glossary On
Versions: 1 2 3 4 5 6 7 8 9 10 11 12 13 14 15 16 17 18 19 20 21 22 23 24 25 26 27 28 29 30 31
000
FTUS44 KMRX 051004 AAB
TAFTRI
TAF AMD
KTRI 051004Z 0510/0606 00000KT P6SM SKC
      TEMPO 0511/0513 3SM BR SKC
     FM051300 00000KT 5SM BR SKC
     FM051400 12003KT P6SM SCT030 SCT250=

USA.gov is the U.S. government's official web portal to all federal, state and local government web resources and services.